Aviation Digital Data Service (ADDS)

Output produced by METARs form (1348 UTC 26 May 2018)
found at http://www.aviationweather.gov/adds/metars/
 
KWJF 261313Z 2613/2712 26020G28KT P6SM SKC 
     FM261800 25025G35KT P6SM SCT040 
     FM270400 25018G25KT P6SM SKC 
     FM270900 25013KT P6SM SKC
       
KWMC 261135Z 2612/2712 29010KT P6SM SCT050 BKN200 
     FM261800 31010G20KT P6SM VCTS SCT050 BKN070CB 
     TEMPO 2620/2624 VRB20G30KT -TSRA BKN050CB 
     FM270600 27006KT P6SM OVC100
       
TAF KWRB 252100Z 2521/2703 15006KT 9999 SCT070 BKN200 QNH2990INS 
     TEMPO 2521/2524 VRB15G25KT 4800 -TSRA OVC030CB 
     BECMG 2600/2601 15006KT 9999 BKN050 BKN200 QNH2992INS 
     BECMG 2617/2618 15009KT 8000 -SHRA BKN030 QNH2993INS TX27/2521Z TN21/2612Z LAST NO AMDS AFT 2521 NEXT 2619
       
TAF KWRI 261000Z 2610/2716 19009KT 9999 FEW110 QNH2981INS 
     BECMG 2614/2615 23009KT 9999 FEW040 SCT060 QNH2977INS 
     TEMPO 2618/2622 25015G25KT 6000 -TSRA OVC040CB 
     BECMG 2623/2624 24009KT 8000 -SHRA SCT040 BKN060 QNH2981INS 
     BECMG 2708/2709 22009KT 8000 -SHRA BKN010 OVC020 QNH2986INS TX31/2619Z TN19/2610Z
       
KWRL 261120Z 2612/2712 VRB06KT P6SM SKC 
     FM262000 19011KT P6SM SCT250 
     FM270600 33010KT P6SM SCT120 BKN200